sensor_id;sensor_type;location;lat;lon;timestamp;P1;durP1;ratioP1;P2;durP2;ratioP2
32172;SDS011;18679;45.190;5.722;2023-08-24T00:01:29;4.85;;;2.80;;
32172;SDS011;18679;45.190;5.722;2023-08-24T00:04:30;6.22;;;2.10;;
32172;SDS011;18679;45.190;5.722;2023-08-24T00:07:32;7.55;;;2.35;;
32172;SDS011;18679;45.190;5.722;2023-08-24T00:10:34;4.90;;;2.60;;
32172;SDS011;18679;45.190;5.722;2023-08-24T00:13:36;4.07;;;2.78;;
32172;SDS011;18679;45.190;5.722;2023-08-24T00:16:37;6.22;;;2.70;;
32172;SDS011;18679;45.190;5.722;2023-08-24T00:19:38;6.78;;;2.65;;
32172;SDS011;18679;45.190;5.722;2023-08-24T00:22:39;10.38;;;2.60;;
32172;SDS011;18679;45.190;5.722;2023-08-24T00:25:40;5.80;;;2.55;;
32172;SDS011;18679;45.190;5.722;2023-08-24T00:28:42;10.30;;;2.88;;
32172;SDS011;18679;45.190;5.722;2023-08-24T00:31:43;9.85;;;2.90;;
32172;SDS011;18679;45.190;5.722;2023-08-24T00:34:45;8.73;;;2.63;;
32172;SDS011;18679;45.190;5.722;2023-08-24T00:37:46;5.05;;;2.17;;
32172;SDS011;18679;45.190;5.722;2023-08-24T00:40:49;16.73;;;2.65;;
32172;SDS011;18679;45.190;5.722;2023-08-24T00:43:53;6.22;;;2.15;;
32172;SDS011;18679;45.190;5.722;2023-08-24T00:46:54;4.28;;;2.50;;
32172;SDS011;18679;45.190;5.722;2023-08-24T00:49:55;10.23;;;2.50;;
32172;SDS011;18679;45.190;5.722;2023-08-24T00:52:56;5.13;;;2.08;;
32172;SDS011;18679;45.190;5.722;2023-08-24T00:55:57;8.60;;;2.88;;
32172;SDS011;18679;45.190;5.722;2023-08-24T00:58:59;7.50;;;2.47;;
32172;SDS011;18679;45.190;5.722;2023-08-24T01:02:01;7.35;;;2.30;;
32172;SDS011;18679;45.190;5.722;2023-08-24T01:05:04;6.03;;;2.78;;
32172;SDS011;18679;45.190;5.722;2023-08-24T01:08:05;7.38;;;2.17;;
32172;SDS011;18679;45.190;5.722;2023-08-24T01:14:41;6.40;;;2.40;;
32172;SDS011;18679;45.190;5.722;2023-08-24T01:17:46;15.05;;;3.13;;
32172;SDS011;18679;45.190;5.722;2023-08-24T01:20:50;9.77;;;2.75;;
32172;SDS011;18679;45.190;5.722;2023-08-24T01:27:12;8.98;;;2.47;;
32172;SDS011;18679;45.190;5.722;2023-08-24T01:30:15;6.53;;;2.70;;
32172;SDS011;18679;45.190;5.722;2023-08-24T01:33:18;12.82;;;2.60;;
32172;SDS011;18679;45.190;5.722;2023-08-24T01:36:19;7.07;;;2.75;;
32172;SDS011;18679;45.190;5.722;2023-08-24T01:39:25;5.90;;;2.45;;
32172;SDS011;18679;45.190;5.722;2023-08-24T01:42:31;12.68;;;2.67;;
32172;SDS011;18679;45.190;5.722;2023-08-24T01:45:34;5.95;;;2.38;;
32172;SDS011;18679;45.190;5.722;2023-08-24T01:48:35;9.05;;;2.30;;
32172;SDS011;18679;45.190;5.722;2023-08-24T01:51:37;5.88;;;2.47;;
32172;SDS011;18679;45.190;5.722;2023-08-24T01:54:37;8.65;;;3.15;;
32172;SDS011;18679;45.190;5.722;2023-08-24T01:57:39;7.80;;;2.55;;
32172;SDS011;18679;45.190;5.722;2023-08-24T02:00:40;12.98;;;2.55;;
32172;SDS011;18679;45.190;5.722;2023-08-24T02:03:42;5.15;;;3.03;;
32172;SDS011;18679;45.190;5.722;2023-08-24T02:06:44;8.38;;;2.45;;
32172;SDS011;18679;45.190;5.722;2023-08-24T02:09:46;6.95;;;2.22;;
32172;SDS011;18679;45.190;5.722;2023-08-24T02:12:47;12.68;;;2.85;;
32172;SDS011;18679;45.190;5.722;2023-08-24T02:15:48;11.07;;;2.88;;
32172;SDS011;18679;45.190;5.722;2023-08-24T02:18:48;6.68;;;2.67;;
32172;SDS011;18679;45.190;5.722;2023-08-24T02:21:49;9.32;;;2.70;;
32172;SDS011;18679;45.190;5.722;2023-08-24T02:24:50;6.10;;;2.65;;
32172;SDS011;18679;45.190;5.722;2023-08-24T02:27:51;12.27;;;2.97;;
32172;SDS011;18679;45.190;5.722;2023-08-24T02:30:54;6.53;;;2.47;;
32172;SDS011;18679;45.190;5.722;2023-08-24T02:33:54;7.43;;;2.55;;
32172;SDS011;18679;45.190;5.722;2023-08-24T02:36:56;7.20;;;2.50;;
32172;SDS011;18679;45.190;5.722;2023-08-24T02:39:57;6.28;;;2.35;;
32172;SDS011;18679;45.190;5.722;2023-08-24T02:42:58;8.27;;;2.80;;
32172;SDS011;18679;45.190;5.722;2023-08-24T02:46:01;12.65;;;2.70;;
32172;SDS011;18679;45.190;5.722;2023-08-24T02:49:06;6.63;;;2.65;;
32172;SDS011;18679;45.190;5.722;2023-08-24T02:52:08;8.98;;;2.72;;
32172;SDS011;18679;45.190;5.722;2023-08-24T02:55:10;18.85;;;2.83;;
32172;SDS011;18679;45.190;5.722;2023-08-24T02:58:11;7.32;;;2.80;;
32172;SDS011;18679;45.190;5.722;2023-08-24T03:01:11;12.73;;;3.08;;
32172;SDS011;18679;45.190;5.722;2023-08-24T03:04:12;4.40;;;2.30;;
32172;SDS011;18679;45.190;5.722;2023-08-24T03:07:13;5.60;;;2.80;;
32172;SDS011;18679;45.190;5.722;2023-08-24T03:10:14;5.43;;;2.67;;
32172;SDS011;18679;45.190;5.722;2023-08-24T03:13:15;8.25;;;2.58;;
32172;SDS011;18679;45.190;5.722;2023-08-24T03:16:16;9.77;;;3.03;;
32172;SDS011;18679;45.190;5.722;2023-08-24T03:19:17;4.18;;;2.70;;
32172;SDS011;18679;45.190;5.722;2023-08-24T03:22:18;5.93;;;2.90;;
32172;SDS011;18679;45.190;5.722;2023-08-24T03:25:19;10.52;;;2.85;;
32172;SDS011;18679;45.190;5.722;2023-08-24T03:28:21;6.15;;;2.45;;
32172;SDS011;18679;45.190;5.722;2023-08-24T03:31:22;10.38;;;3.17;;
32172;SDS011;18679;45.190;5.722;2023-08-24T03:34:23;7.30;;;2.88;;
32172;SDS011;18679;45.190;5.722;2023-08-24T03:37:24;7.35;;;2.85;;
32172;SDS011;18679;45.190;5.722;2023-08-24T03:40:25;8.30;;;2.63;;
32172;SDS011;18679;45.190;5.722;2023-08-24T03:43:27;9.50;;;2.85;;
32172;SDS011;18679;45.190;5.722;2023-08-24T03:46:29;8.77;;;2.55;;
32172;SDS011;18679;45.190;5.722;2023-08-24T03:49:30;6.75;;;2.17;;
32172;SDS011;18679;45.190;5.722;2023-08-24T03:52:31;4.70;;;2.78;;
32172;SDS011;18679;45.190;5.722;2023-08-24T03:55:32;7.60;;;2.90;;
32172;SDS011;18679;45.190;5.722;2023-08-24T03:58:33;5.00;;;2.63;;
32172;SDS011;18679;45.190;5.722;2023-08-24T04:01:34;9.88;;;3.10;;
32172;SDS011;18679;45.190;5.722;2023-08-24T04:04:35;4.32;;;2.42;;
32172;SDS011;18679;45.190;5.722;2023-08-24T04:07:36;7.15;;;3.17;;
32172;SDS011;18679;45.190;5.722;2023-08-24T04:10:38;10.45;;;2.60;;
32172;SDS011;18679;45.190;5.722;2023-08-24T04:13:39;5.93;;;2.60;;
32172;SDS011;18679;45.190;5.722;2023-08-24T04:16:40;7.75;;;2.55;;
32172;SDS011;18679;45.190;5.722;2023-08-24T04:19:42;5.13;;;3.05;;
32172;SDS011;18679;45.190;5.722;2023-08-24T04:22:43;8.38;;;2.75;;
32172;SDS011;18679;45.190;5.722;2023-08-24T04:25:44;8.38;;;3.00;;
32172;SDS011;18679;45.190;5.722;2023-08-24T04:28:44;6.53;;;2.30;;
32172;SDS011;18679;45.190;5.722;2023-08-24T04:31:45;11.10;;;2.53;;
32172;SDS011;18679;45.190;5.722;2023-08-24T04:34:46;14.05;;;2.70;;
32172;SDS011;18679;45.190;5.722;2023-08-24T04:37:47;5.88;;;2.65;;
32172;SDS011;18679;45.190;5.722;2023-08-24T04:40:48;8.52;;;2.90;;
32172;SDS011;18679;45.190;5.722;2023-08-24T04:43:50;6.05;;;2.90;;
32172;SDS011;18679;45.190;5.722;2023-08-24T04:46:51;8.70;;;2.88;;
32172;SDS011;18679;45.190;5.722;2023-08-24T04:49:52;11.88;;;3.00;;
32172;SDS011;18679;45.190;5.722;2023-08-24T04:52:53;8.48;;;2.95;;
32172;SDS011;18679;45.190;5.722;2023-08-24T04:55:55;7.43;;;2.90;;
32172;SDS011;18679;45.190;5.722;2023-08-24T04:58:56;10.57;;;3.63;;
32172;SDS011;18679;45.190;5.722;2023-08-24T05:01:57;6.55;;;3.03;;
32172;SDS011;18679;45.190;5.722;2023-08-24T05:04:59;9.10;;;3.00;;
32172;SDS011;18679;45.190;5.722;2023-08-24T05:08:00;7.40;;;3.00;;
32172;SDS011;18679;45.190;5.722;2023-08-24T05:11:09;15.35;;;3.55;;
32172;SDS011;18679;45.190;5.722;2023-08-24T05:14:14;7.47;;;3.22;;
32172;SDS011;18679;45.190;5.722;2023-08-24T05:17:15;13.70;;;3.17;;
32172;SDS011;18679;45.190;5.722;2023-08-24T05:20:16;14.68;;;3.00;;
32172;SDS011;18679;45.190;5.722;2023-08-24T05:23:17;12.20;;;3.75;;
32172;SDS011;18679;45.190;5.722;2023-08-24T05:26:18;9.02;;;2.92;;
32172;SDS011;18679;45.190;5.722;2023-08-24T05:29:22;10.13;;;3.03;;
32172;SDS011;18679;45.190;5.722;2023-08-24T05:32:23;9.70;;;3.17;;
32172;SDS011;18679;45.190;5.722;2023-08-24T05:35:25;12.98;;;3.13;;
32172;SDS011;18679;45.190;5.722;2023-08-24T05:38:27;10.68;;;3.25;;
32172;SDS011;18679;45.190;5.722;2023-08-24T05:41:28;12.77;;;2.75;;
32172;SDS011;18679;45.190;5.722;2023-08-24T05:44:29;6.82;;;2.70;;
32172;SDS011;18679;45.190;5.722;2023-08-24T05:47:30;7.50;;;3.28;;
32172;SDS011;18679;45.190;5.722;2023-08-24T05:50:31;9.98;;;3.53;;
32172;SDS011;18679;45.190;5.722;2023-08-24T05:53:32;7.82;;;3.08;;
32172;SDS011;18679;45.190;5.722;2023-08-24T05:56:33;7.85;;;3.13;;
32172;SDS011;18679;45.190;5.722;2023-08-24T05:59:34;9.57;;;2.80;;
32172;SDS011;18679;45.190;5.722;2023-08-24T06:02:35;11.13;;;3.15;;
32172;SDS011;18679;45.190;5.722;2023-08-24T06:05:36;6.90;;;2.72;;
32172;SDS011;18679;45.190;5.722;2023-08-24T06:08:38;21.90;;;3.65;;
32172;SDS011;18679;45.190;5.722;2023-08-24T06:11:40;10.10;;;3.22;;
32172;SDS011;18679;45.190;5.722;2023-08-24T06:14:41;15.02;;;3.45;;
32172;SDS011;18679;45.190;5.722;2023-08-24T06:17:42;8.52;;;3.13;;
32172;SDS011;18679;45.190;5.722;2023-08-24T06:20:43;7.82;;;2.65;;
32172;SDS011;18679;45.190;5.722;2023-08-24T06:23:44;9.50;;;3.13;;
32172;SDS011;18679;45.190;5.722;2023-08-24T06:26:45;3.45;;;2.58;;
32172;SDS011;18679;45.190;5.722;2023-08-24T06:29:45;6.70;;;2.90;;
32172;SDS011;18679;45.190;5.722;2023-08-24T06:32:46;17.58;;;3.33;;
32172;SDS011;18679;45.190;5.722;2023-08-24T06:35:47;11.70;;;4.38;;
32172;SDS011;18679;45.190;5.722;2023-08-24T06:38:48;6.90;;;3.10;;
32172;SDS011;18679;45.190;5.722;2023-08-24T06:41:49;17.33;;;3.50;;
32172;SDS011;18679;45.190;5.722;2023-08-24T06:44:57;12.30;;;3.17;;
32172;SDS011;18679;45.190;5.722;2023-08-24T06:47:58;22.33;;;3.05;;
32172;SDS011;18679;45.190;5.722;2023-08-24T06:50:59;12.40;;;3.63;;
32172;SDS011;18679;45.190;5.722;2023-08-24T06:53:59;8.40;;;3.15;;
32172;SDS011;18679;45.190;5.722;2023-08-24T06:57:00;13.43;;;3.22;;
32172;SDS011;18679;45.190;5.722;2023-08-24T07:00:01;12.57;;;3.58;;
32172;SDS011;18679;45.190;5.722;2023-08-24T07:03:06;13.07;;;3.20;;
32172;SDS011;18679;45.190;5.722;2023-08-24T07:06:08;6.90;;;2.70;;
32172;SDS011;18679;45.190;5.722;2023-08-24T07:09:08;5.95;;;3.03;;
32172;SDS011;18679;45.190;5.722;2023-08-24T07:12:09;7.95;;;3.30;;
32172;SDS011;18679;45.190;5.722;2023-08-24T07:15:11;5.82;;;3.20;;
32172;SDS011;18679;45.190;5.722;2023-08-24T07:18:12;7.75;;;3.63;;
32172;SDS011;18679;45.190;5.722;2023-08-24T07:21:13;11.23;;;3.13;;
32172;SDS011;18679;45.190;5.722;2023-08-24T07:24:15;16.08;;;3.00;;
32172;SDS011;18679;45.190;5.722;2023-08-24T07:27:19;13.52;;;2.97;;
32172;SDS011;18679;45.190;5.722;2023-08-24T07:30:20;13.57;;;3.35;;
32172;SDS011;18679;45.190;5.722;2023-08-24T07:33:21;10.15;;;3.20;;
32172;SDS011;18679;45.190;5.722;2023-08-24T07:36:23;11.52;;;3.70;;
32172;SDS011;18679;45.190;5.722;2023-08-24T07:39:23;10.75;;;3.28;;
32172;SDS011;18679;45.190;5.722;2023-08-24T07:42:24;6.82;;;3.45;;
32172;SDS011;18679;45.190;5.722;2023-08-24T07:45:25;20.30;;;4.22;;
32172;SDS011;18679;45.190;5.722;2023-08-24T07:48:26;9.43;;;3.88;;
32172;SDS011;18679;45.190;5.722;2023-08-24T07:51:27;12.90;;;3.65;;
32172;SDS011;18679;45.190;5.722;2023-08-24T07:54:29;12.90;;;3.65;;
32172;SDS011;18679;45.190;5.722;2023-08-24T07:57:30;6.75;;;3.75;;
32172;SDS011;18679;45.190;5.722;2023-08-24T08:00:31;5.95;;;3.75;;
32172;SDS011;18679;45.190;5.722;2023-08-24T08:03:32;7.78;;;3.47;;
32172;SDS011;18679;45.190;5.722;2023-08-24T08:06:36;10.10;;;3.80;;
32172;SDS011;18679;45.190;5.722;2023-08-24T08:09:37;7.10;;;3.28;;
32172;SDS011;18679;45.190;5.722;2023-08-24T08:12:37;9.13;;;4.03;;
32172;SDS011;18679;45.190;5.722;2023-08-24T08:15:38;7.57;;;3.33;;
32172;SDS011;18679;45.190;5.722;2023-08-24T08:18:39;11.73;;;3.35;;
32172;SDS011;18679;45.190;5.722;2023-08-24T08:21:40;7.82;;;3.45;;
32172;SDS011;18679;45.190;5.722;2023-08-24T08:24:41;6.45;;;3.45;;
32172;SDS011;18679;45.190;5.722;2023-08-24T08:27:42;24.95;;;3.30;;
32172;SDS011;18679;45.190;5.722;2023-08-24T08:30:44;6.65;;;2.88;;
32172;SDS011;18679;45.190;5.722;2023-08-24T08:33:48;8.18;;;3.33;;
32172;SDS011;18679;45.190;5.722;2023-08-24T08:36:49;10.48;;;3.55;;
32172;SDS011;18679;45.190;5.722;2023-08-24T08:39:50;10.10;;;3.33;;
32172;SDS011;18679;45.190;5.722;2023-08-24T08:42:51;11.82;;;3.70;;
32172;SDS011;18679;45.190;5.722;2023-08-24T08:45:52;18.83;;;4.95;;
32172;SDS011;18679;45.190;5.722;2023-08-24T08:48:55;16.10;;;4.68;;
32172;SDS011;18679;45.190;5.722;2023-08-24T08:51:57;11.40;;;3.13;;
32172;SDS011;18679;45.190;5.722;2023-08-24T08:54:58;21.48;;;3.40;;
32172;SDS011;18679;45.190;5.722;2023-08-24T08:57:59;9.55;;;3.08;;
32172;SDS011;18679;45.190;5.722;2023-08-24T09:01:03;12.13;;;4.65;;
32172;SDS011;18679;45.190;5.722;2023-08-24T09:04:06;17.77;;;3.50;;
32172;SDS011;18679;45.190;5.722;2023-08-24T09:07:07;6.00;;;3.72;;
32172;SDS011;18679;45.190;5.722;2023-08-24T09:10:12;6.40;;;2.95;;
32172;SDS011;18679;45.190;5.722;2023-08-24T09:13:13;10.85;;;3.15;;
32172;SDS011;18679;45.190;5.722;2023-08-24T09:16:14;8.10;;;3.30;;
32172;SDS011;18679;45.190;5.722;2023-08-24T09:19:18;8.98;;;3.22;;
32172;SDS011;18679;45.190;5.722;2023-08-24T09:22:19;9.23;;;3.40;;
32172;SDS011;18679;45.190;5.722;2023-08-24T09:25:20;9.30;;;3.28;;
32172;SDS011;18679;45.190;5.722;2023-08-24T09:28:24;10.07;;;3.72;;
32172;SDS011;18679;45.190;5.722;2023-08-24T09:31:34;13.65;;;3.67;;
32172;SDS011;18679;45.190;5.722;2023-08-24T09:34:37;13.77;;;4.30;;
32172;SDS011;18679;45.190;5.722;2023-08-24T09:37:38;13.00;;;2.83;;
32172;SDS011;18679;45.190;5.722;2023-08-24T09:40:39;14.07;;;3.95;;
32172;SDS011;18679;45.190;5.722;2023-08-24T09:43:47;15.38;;;3.10;;
32172;SDS011;18679;45.190;5.722;2023-08-24T09:46:48;15.00;;;3.17;;
32172;SDS011;18679;45.190;5.722;2023-08-24T09:49:50;12.23;;;3.35;;
32172;SDS011;18679;45.190;5.722;2023-08-24T09:52:52;11.68;;;3.70;;
32172;SDS011;18679;45.190;5.722;2023-08-24T09:56:00;17.65;;;4.88;;
32172;SDS011;18679;45.190;5.722;2023-08-24T09:59:04;11.50;;;3.38;;
32172;SDS011;18679;45.190;5.722;2023-08-24T10:02:17;14.40;;;3.15;;
32172;SDS011;18679;45.190;5.722;2023-08-24T10:05:23;7.55;;;2.90;;
32172;SDS011;18679;45.190;5.722;2023-08-24T10:08:27;11.48;;;4.60;;
32172;SDS011;18679;45.190;5.722;2023-08-24T10:11:29;8.13;;;2.92;;
32172;SDS011;18679;45.190;5.722;2023-08-24T10:17:40;10.07;;;3.10;;
32172;SDS011;18679;45.190;5.722;2023-08-24T10:20:42;11.57;;;3.33;;
32172;SDS011;18679;45.190;5.722;2023-08-24T10:23:44;8.98;;;2.53;;
32172;SDS011;18679;45.190;5.722;2023-08-24T10:26:46;10.25;;;3.45;;
32172;SDS011;18679;45.190;5.722;2023-08-24T10:29:48;7.50;;;3.78;;
32172;SDS011;18679;45.190;5.722;2023-08-24T10:32:49;13.82;;;3.35;;
32172;SDS011;18679;45.190;5.722;2023-08-24T10:35:53;5.97;;;3.05;;
32172;SDS011;18679;45.190;5.722;2023-08-24T10:38:57;12.65;;;3.15;;
32172;SDS011;18679;45.190;5.722;2023-08-24T10:42:05;6.10;;;3.15;;
32172;SDS011;18679;45.190;5.722;2023-08-24T10:45:14;7.70;;;3.30;;
32172;SDS011;18679;45.190;5.722;2023-08-24T10:48:17;14.93;;;3.43;;
32172;SDS011;18679;45.190;5.722;2023-08-24T10:51:19;8.68;;;2.92;;
32172;SDS011;18679;45.190;5.722;2023-08-24T10:54:30;7.03;;;3.13;;
32172;SDS011;18679;45.190;5.722;2023-08-24T10:57:38;8.68;;;3.03;;
32172;SDS011;18679;45.190;5.722;2023-08-24T11:00:41;14.18;;;3.58;;
32172;SDS011;18679;45.190;5.722;2023-08-24T11:03:50;4.85;;;2.97;;
32172;SDS011;18679;45.190;5.722;2023-08-24T11:06:56;7.68;;;2.90;;
32172;SDS011;18679;45.190;5.722;2023-08-24T11:09:59;8.60;;;2.90;;
32172;SDS011;18679;45.190;5.722;2023-08-24T11:16:37;9.93;;;2.95;;
32172;SDS011;18679;45.190;5.722;2023-08-24T11:19:44;8.48;;;2.78;;
32172;SDS011;18679;45.190;5.722;2023-08-24T11:22:53;8.57;;;2.85;;
32172;SDS011;18679;45.190;5.722;2023-08-24T11:25:59;8.05;;;2.95;;
32172;SDS011;18679;45.190;5.722;2023-08-24T11:29:04;7.57;;;2.78;;
32172;SDS011;18679;45.190;5.722;2023-08-24T11:32:05;8.52;;;2.80;;
32172;SDS011;18679;45.190;5.722;2023-08-24T11:35:07;9.38;;;3.10;;
32172;SDS011;18679;45.190;5.722;2023-08-24T11:38:12;17.23;;;3.25;;
32172;SDS011;18679;45.190;5.722;2023-08-24T11:41:15;6.13;;;2.42;;
32172;SDS011;18679;45.190;5.722;2023-08-24T11:44:17;5.65;;;2.50;;
32172;SDS011;18679;45.190;5.722;2023-08-24T11:47:20;5.95;;;2.40;;
32172;SDS011;18679;45.190;5.722;2023-08-24T11:50:23;5.22;;;2.70;;
32172;SDS011;18679;45.190;5.722;2023-08-24T11:53:24;6.28;;;3.00;;
32172;SDS011;18679;45.190;5.722;2023-08-24T11:56:26;5.03;;;2.40;;
32172;SDS011;18679;45.190;5.722;2023-08-24T11:59:28;9.23;;;2.42;;
32172;SDS011;18679;45.190;5.722;2023-08-24T12:02:33;10.88;;;2.85;;
32172;SDS011;18679;45.190;5.722;2023-08-24T12:05:34;8.60;;;2.40;;
32172;SDS011;18679;45.190;5.722;2023-08-24T12:08:42;8.10;;;2.42;;
32172;SDS011;18679;45.190;5.722;2023-08-24T12:11:45;7.38;;;2.35;;
32172;SDS011;18679;45.190;5.722;2023-08-24T12:14:46;10.80;;;2.90;;
32172;SDS011;18679;45.190;5.722;2023-08-24T12:17:48;6.60;;;3.00;;
32172;SDS011;18679;45.190;5.722;2023-08-24T12:20:49;13.23;;;2.88;;
32172;SDS011;18679;45.190;5.722;2023-08-24T12:27:05;4.32;;;2.35;;
32172;SDS011;18679;45.190;5.722;2023-08-24T12:30:06;10.32;;;2.38;;
32172;SDS011;18679;45.190;5.722;2023-08-24T12:33:07;8.75;;;2.58;;
32172;SDS011;18679;45.190;5.722;2023-08-24T12:36:08;10.18;;;2.60;;
32172;SDS011;18679;45.190;5.722;2023-08-24T12:39:12;17.00;;;2.72;;
32172;SDS011;18679;45.190;5.722;2023-08-24T12:42:13;10.00;;;2.40;;
32172;SDS011;18679;45.190;5.722;2023-08-24T12:45:14;6.60;;;2.40;;
32172;SDS011;18679;45.190;5.722;2023-08-24T12:48:15;7.25;;;2.35;;
32172;SDS011;18679;45.190;5.722;2023-08-24T12:51:16;7.25;;;2.40;;
32172;SDS011;18679;45.190;5.722;2023-08-24T12:54:17;6.10;;;2.58;;
32172;SDS011;18679;45.190;5.722;2023-08-24T12:57:18;8.82;;;2.25;;
32172;SDS011;18679;45.190;5.722;2023-08-24T13:00:19;5.18;;;2.25;;
32172;SDS011;18679;45.190;5.722;2023-08-24T13:03:22;9.68;;;2.40;;
32172;SDS011;18679;45.190;5.722;2023-08-24T13:06:23;6.50;;;2.60;;
32172;SDS011;18679;45.190;5.722;2023-08-24T13:09:24;6.10;;;2.30;;
32172;SDS011;18679;45.190;5.722;2023-08-24T13:12:26;7.20;;;3.15;;
32172;SDS011;18679;45.190;5.722;2023-08-24T13:15:26;15.52;;;2.80;;
32172;SDS011;18679;45.190;5.722;2023-08-24T13:18:27;4.47;;;1.95;;
32172;SDS011;18679;45.190;5.722;2023-08-24T13:21:28;6.47;;;2.20;;
32172;SDS011;18679;45.190;5.722;2023-08-24T13:24:29;8.20;;;2.25;;
32172;SDS011;18679;45.190;5.722;2023-08-24T13:27:31;9.73;;;2.30;;
32172;SDS011;18679;45.190;5.722;2023-08-24T13:30:32;15.82;;;2.42;;
32172;SDS011;18679;45.190;5.722;2023-08-24T13:33:33;5.35;;;2.50;;
32172;SDS011;18679;45.190;5.722;2023-08-24T13:36:34;6.38;;;2.58;;
32172;SDS011;18679;45.190;5.722;2023-08-24T13:39:35;6.90;;;2.40;;
32172;SDS011;18679;45.190;5.722;2023-08-24T13:42:35;6.47;;;2.25;;
32172;SDS011;18679;45.190;5.722;2023-08-24T13:45:36;4.03;;;2.15;;
32172;SDS011;18679;45.190;5.722;2023-08-24T13:48:37;7.07;;;2.38;;
32172;SDS011;18679;45.190;5.722;2023-08-24T13:51:39;12.98;;;2.33;;
32172;SDS011;18679;45.190;5.722;2023-08-24T13:54:40;7.28;;;2.50;;
32172;SDS011;18679;45.190;5.722;2023-08-24T13:57:42;7.78;;;2.70;;
32172;SDS011;18679;45.190;5.722;2023-08-24T14:00:43;9.23;;;2.78;;
32172;SDS011;18679;45.190;5.722;2023-08-24T14:03:45;6.10;;;2.15;;
32172;SDS011;18679;45.190;5.722;2023-08-24T14:06:46;7.45;;;2.50;;
32172;SDS011;18679;45.190;5.722;2023-08-24T14:09:48;6.30;;;2.42;;
32172;SDS011;18679;45.190;5.722;2023-08-24T14:12:49;8.40;;;2.35;;
32172;SDS011;18679;45.190;5.722;2023-08-24T14:15:51;4.15;;;1.85;;
32172;SDS011;18679;45.190;5.722;2023-08-24T14:18:52;2.72;;;2.20;;
32172;SDS011;18679;45.190;5.722;2023-08-24T14:21:53;9.32;;;2.20;;
32172;SDS011;18679;45.190;5.722;2023-08-24T14:24:54;8.68;;;2.50;;
32172;SDS011;18679;45.190;5.722;2023-08-24T14:27:55;6.57;;;2.38;;
32172;SDS011;18679;45.190;5.722;2023-08-24T14:30:56;3.25;;;1.90;;
32172;SDS011;18679;45.190;5.722;2023-08-24T14:33:57;6.38;;;2.45;;
32172;SDS011;18679;45.190;5.722;2023-08-24T14:36:57;3.83;;;2.22;;
32172;SDS011;18679;45.190;5.722;2023-08-24T14:39:58;6.88;;;2.00;;
32172;SDS011;18679;45.190;5.722;2023-08-24T14:42:59;13.15;;;2.63;;
32172;SDS011;18679;45.190;5.722;2023-08-24T14:46:00;12.95;;;2.80;;
32172;SDS011;18679;45.190;5.722;2023-08-24T14:49:01;9.57;;;3.30;;
32172;SDS011;18679;45.190;5.722;2023-08-24T14:52:03;4.45;;;2.65;;
32172;SDS011;18679;45.190;5.722;2023-08-24T14:55:06;5.00;;;2.00;;
32172;SDS011;18679;45.190;5.722;2023-08-24T14:58:10;6.67;;;2.60;;
32172;SDS011;18679;45.190;5.722;2023-08-24T15:01:11;5.45;;;2.72;;
32172;SDS011;18679;45.190;5.722;2023-08-24T15:04:12;3.63;;;2.53;;
32172;SDS011;18679;45.190;5.722;2023-08-24T15:07:13;5.50;;;2.63;;
32172;SDS011;18679;45.190;5.722;2023-08-24T15:10:14;5.80;;;2.30;;
32172;SDS011;18679;45.190;5.722;2023-08-24T15:13:16;11.73;;;2.63;;
32172;SDS011;18679;45.190;5.722;2023-08-24T15:16:17;9.20;;;2.58;;
32172;SDS011;18679;45.190;5.722;2023-08-24T15:19:18;4.00;;;2.05;;
32172;SDS011;18679;45.190;5.722;2023-08-24T15:22:18;4.55;;;2.22;;
32172;SDS011;18679;45.190;5.722;2023-08-24T15:25:19;4.10;;;2.30;;
32172;SDS011;18679;45.190;5.722;2023-08-24T15:28:22;10.93;;;2.50;;
32172;SDS011;18679;45.190;5.722;2023-08-24T15:31:23;3.55;;;2.10;;
32172;SDS011;18679;45.190;5.722;2023-08-24T15:34:24;3.85;;;2.50;;
32172;SDS011;18679;45.190;5.722;2023-08-24T15:37:25;5.30;;;2.92;;
32172;SDS011;18679;45.190;5.722;2023-08-24T15:40:27;5.63;;;2.42;;
32172;SDS011;18679;45.190;5.722;2023-08-24T15:43:35;6.22;;;2.58;;
32172;SDS011;18679;45.190;5.722;2023-08-24T15:46:35;3.58;;;2.55;;
32172;SDS011;18679;45.190;5.722;2023-08-24T15:49:36;4.95;;;2.97;;
32172;SDS011;18679;45.190;5.722;2023-08-24T15:52:37;6.20;;;2.70;;
32172;SDS011;18679;45.190;5.722;2023-08-24T15:55:38;7.82;;;2.55;;
32172;SDS011;18679;45.190;5.722;2023-08-24T15:58:39;5.72;;;2.75;;
32172;SDS011;18679;45.190;5.722;2023-08-24T16:01:42;6.25;;;2.83;;
32172;SDS011;18679;45.190;5.722;2023-08-24T16:04:43;6.10;;;2.72;;
32172;SDS011;18679;45.190;5.722;2023-08-24T16:07:44;7.65;;;2.72;;
32172;SDS011;18679;45.190;5.722;2023-08-24T16:10:45;4.40;;;2.85;;
32172;SDS011;18679;45.190;5.722;2023-08-24T16:13:46;7.10;;;2.65;;
32172;SDS011;18679;45.190;5.722;2023-08-24T16:16:47;6.78;;;2.72;;
32172;SDS011;18679;45.190;5.722;2023-08-24T16:19:48;3.33;;;2.72;;
32172;SDS011;18679;45.190;5.722;2023-08-24T16:22:49;4.10;;;2.45;;
32172;SDS011;18679;45.190;5.722;2023-08-24T16:25:50;8.10;;;2.80;;
32172;SDS011;18679;45.190;5.722;2023-08-24T16:28:51;4.40;;;2.78;;
32172;SDS011;18679;45.190;5.722;2023-08-24T16:31:52;4.80;;;2.75;;
32172;SDS011;18679;45.190;5.722;2023-08-24T16:34:54;5.65;;;2.60;;
32172;SDS011;18679;45.190;5.722;2023-08-24T16:37:55;4.65;;;2.78;;
32172;SDS011;18679;45.190;5.722;2023-08-24T16:40:56;6.15;;;2.28;;
32172;SDS011;18679;45.190;5.722;2023-08-24T16:43:57;3.95;;;2.45;;
32172;SDS011;18679;45.190;5.722;2023-08-24T16:46:58;8.18;;;3.13;;
32172;SDS011;18679;45.190;5.722;2023-08-24T16:49:59;3.70;;;2.63;;
32172;SDS011;18679;45.190;5.722;2023-08-24T16:53:00;5.97;;;3.20;;
32172;SDS011;18679;45.190;5.722;2023-08-24T16:56:01;8.07;;;2.97;;
32172;SDS011;18679;45.190;5.722;2023-08-24T16:59:03;8.93;;;3.00;;
32172;SDS011;18679;45.190;5.722;2023-08-24T17:02:04;4.35;;;2.70;;
32172;SDS011;18679;45.190;5.722;2023-08-24T17:05:05;10.48;;;3.15;;
32172;SDS011;18679;45.190;5.722;2023-08-24T17:08:09;9.50;;;3.22;;
32172;SDS011;18679;45.190;5.722;2023-08-24T17:11:10;3.50;;;2.67;;
32172;SDS011;18679;45.190;5.722;2023-08-24T17:14:11;13.10;;;3.53;;
32172;SDS011;18679;45.190;5.722;2023-08-24T17:17:13;5.88;;;3.13;;
32172;SDS011;18679;45.190;5.722;2023-08-24T17:20:14;5.00;;;3.22;;
32172;SDS011;18679;45.190;5.722;2023-08-24T17:23:15;8.93;;;3.42;;
32172;SDS011;18679;45.190;5.722;2023-08-24T17:26:17;6.72;;;3.00;;
32172;SDS011;18679;45.190;5.722;2023-08-24T17:29:18;6.85;;;3.28;;
32172;SDS011;18679;45.190;5.722;2023-08-24T17:32:19;9.18;;;3.20;;
32172;SDS011;18679;45.190;5.722;2023-08-24T17:35:26;5.67;;;3.77;;
32172;SDS011;18679;45.190;5.722;2023-08-24T17:38:29;7.50;;;3.83;;
32172;SDS011;18679;45.190;5.722;2023-08-24T17:41:31;10.85;;;3.45;;
32172;SDS011;18679;45.190;5.722;2023-08-24T17:44:33;5.13;;;3.25;;
32172;SDS011;18679;45.190;5.722;2023-08-24T17:47:34;5.15;;;3.42;;
32172;SDS011;18679;45.190;5.722;2023-08-24T17:50:35;5.13;;;3.65;;
32172;SDS011;18679;45.190;5.722;2023-08-24T17:53:37;8.35;;;3.20;;
32172;SDS011;18679;45.190;5.722;2023-08-24T17:56:38;4.03;;;3.30;;
32172;SDS011;18679;45.190;5.722;2023-08-24T17:59:38;7.30;;;3.20;;
32172;SDS011;18679;45.190;5.722;2023-08-24T18:02:39;4.05;;;3.20;;
32172;SDS011;18679;45.190;5.722;2023-08-24T18:05:42;8.50;;;3.58;;
32172;SDS011;18679;45.190;5.722;2023-08-24T18:08:44;5.57;;;3.30;;
32172;SDS011;18679;45.190;5.722;2023-08-24T18:11:45;5.63;;;2.90;;
32172;SDS011;18679;45.190;5.722;2023-08-24T18:14:46;4.03;;;3.38;;
32172;SDS011;18679;45.190;5.722;2023-08-24T18:17:47;7.10;;;3.67;;
32172;SDS011;18679;45.190;5.722;2023-08-24T18:20:48;3.83;;;3.22;;
32172;SDS011;18679;45.190;5.722;2023-08-24T18:23:49;4.88;;;2.72;;
32172;SDS011;18679;45.190;5.722;2023-08-24T18:26:49;3.25;;;2.95;;